createdAt,value
2019-02-12T00:00:33.056Z,3.10
2019-02-12T00:03:01.507Z,2.40
2019-02-12T00:05:29.951Z,2.33
2019-02-12T00:07:58.379Z,2.53
2019-02-12T00:10:26.843Z,2.20
2019-02-12T00:12:55.272Z,2.00
2019-02-12T00:15:23.715Z,2.50
2019-02-12T00:17:52.148Z,2.30
2019-02-12T00:20:20.591Z,2.53
2019-02-12T00:22:49.038Z,2.47
2019-02-12T00:25:17.489Z,2.00
2019-02-12T00:27:45.998Z,4.13
2019-02-12T00:30:14.429Z,2.13
2019-02-12T00:32:42.875Z,2.00
2019-02-12T00:35:11.330Z,2.80
2019-02-12T00:37:39.817Z,2.07
2019-02-12T00:40:09.576Z,2.30
2019-02-12T00:42:38.021Z,2.33
2019-02-12T00:45:25.796Z,2.20
2019-02-12T00:47:54.237Z,2.20
2019-02-12T00:50:22.715Z,1.73
2019-02-12T00:52:51.161Z,2.47
2019-02-12T00:55:19.608Z,2.37
2019-02-12T00:57:48.054Z,2.03
2019-02-12T01:00:16.488Z,1.80
2019-02-12T01:02:45.546Z,2.30
2019-02-12T01:05:14.063Z,2.30
2019-02-12T01:07:42.514Z,2.10
2019-02-12T01:10:11.587Z,2.17
2019-02-12T01:12:40.018Z,1.97
2019-02-12T01:15:13.503Z,1.93
2019-02-12T01:17:41.940Z,1.77
2019-02-12T01:20:31.233Z,2.13
2019-02-12T01:22:59.678Z,1.57
2019-02-12T01:25:28.113Z,1.80
2019-02-12T01:27:56.572Z,1.70
2019-02-12T01:30:24.989Z,2.00
2019-02-12T01:32:53.430Z,1.40
2019-02-12T01:35:21.862Z,1.97
2019-02-12T01:37:50.308Z,1.73
2019-02-12T01:40:18.818Z,1.73
2019-02-12T01:42:47.273Z,1.50
2019-02-12T01:45:16.023Z,2.23
2019-02-12T01:47:44.480Z,1.53
2019-02-12T01:50:13.285Z,1.70
2019-02-12T01:52:41.735Z,1.50
2019-02-12T01:55:10.171Z,1.37
2019-02-12T01:57:38.613Z,1.57
2019-02-12T02:00:11.042Z,1.57
2019-02-12T02:02:58.821Z,1.30
2019-02-12T02:05:27.266Z,1.50
2019-02-12T02:07:55.713Z,1.77
2019-02-12T02:10:24.144Z,1.83
2019-02-12T02:12:52.586Z,1.57
2019-02-12T02:15:21.019Z,1.60
2019-02-12T02:17:49.454Z,1.67
2019-02-12T02:20:17.896Z,1.67
2019-02-12T02:22:46.396Z,2.87
2019-02-12T02:25:14.841Z,1.70
2019-02-12T02:27:43.269Z,1.70
2019-02-12T02:30:15.426Z,1.80
2019-02-12T02:32:43.993Z,2.57
2019-02-12T02:35:12.417Z,1.93
2019-02-12T02:37:40.866Z,1.77
2019-02-12T02:40:10.333Z,1.70
2019-02-12T02:42:38.790Z,1.93
2019-02-12T02:45:09.822Z,1.70
2019-02-12T02:47:38.257Z,1.87
2019-02-12T02:50:08.930Z,1.70
2019-02-12T02:52:37.370Z,2.03
2019-02-12T02:55:07.740Z,2.30
2019-02-12T02:57:36.186Z,1.67
2019-02-12T03:00:07.770Z,1.67
2019-02-12T03:02:36.201Z,1.43
2019-02-12T03:05:23.982Z,2.10
2019-02-12T03:07:52.968Z,1.63
2019-02-12T03:10:21.658Z,1.93
2019-02-12T03:12:50.105Z,1.70
2019-02-12T03:15:37.875Z,1.27
2019-02-12T03:18:06.309Z,1.40
2019-02-12T03:20:54.089Z,2.00
2019-02-12T03:23:22.514Z,1.33
2019-02-12T03:25:50.962Z,1.80
2019-02-12T03:28:19.463Z,1.50
2019-02-12T03:30:47.914Z,2.47
2019-02-12T03:33:16.347Z,1.70
2019-02-12T03:35:44.773Z,1.77
2019-02-12T03:38:13.209Z,1.70
2019-02-12T03:40:41.658Z,1.80
2019-02-12T03:43:10.089Z,1.60
2019-02-12T03:45:38.519Z,1.30
2019-02-12T03:48:06.956Z,1.70
2019-02-12T03:50:35.886Z,2.43
2019-02-12T03:53:04.321Z,1.70
2019-02-12T03:55:32.747Z,2.20
2019-02-12T03:58:01.256Z,2.20
2019-02-12T04:00:29.700Z,2.37
2019-02-12T04:03:08.421Z,2.93
2019-02-12T04:05:38.189Z,2.07
2019-02-12T04:08:06.694Z,2.33
2019-02-12T04:10:35.122Z,1.83
2019-02-12T04:13:03.557Z,1.97
2019-02-12T04:15:31.995Z,1.53
2019-02-12T04:18:00.442Z,2.30
2019-02-12T04:20:28.875Z,2.40
2019-02-12T04:22:57.315Z,4.47
2019-02-12T04:25:25.746Z,2.17
2019-02-12T04:27:55.526Z,2.17
2019-02-12T04:30:24.210Z,2.70
2019-02-12T04:32:52.651Z,1.57
2019-02-12T04:35:21.088Z,2.20
2019-02-12T04:37:49.528Z,2.00
2019-02-12T04:40:17.957Z,2.00
2019-02-12T04:42:46.406Z,2.23
2019-02-12T04:45:14.848Z,2.93
2019-02-12T04:47:43.277Z,1.80
2019-02-12T04:50:13.641Z,3.07
2019-02-12T04:52:42.081Z,1.87
2019-02-12T04:55:11.755Z,2.43
2019-02-12T04:57:40.184Z,1.80
2019-02-12T05:00:14.286Z,1.30
2019-02-12T05:02:42.726Z,1.30
2019-02-12T05:05:11.332Z,1.30
2019-02-12T05:07:39.768Z,1.70
2019-02-12T05:10:29.149Z,1.70
2019-02-12T05:12:57.595Z,2.10
2019-02-12T05:15:26.029Z,1.50
2019-02-12T05:17:54.466Z,1.53
2019-02-12T05:20:22.903Z,1.20
2019-02-12T05:22:51.334Z,1.43
2019-02-12T05:25:19.783Z,1.73
2019-02-12T05:27:48.209Z,1.10
2019-02-12T05:30:16.756Z,1.13
2019-02-12T05:32:57.551Z,0.97
2019-02-12T05:35:25.973Z,1.27
2019-02-12T05:37:54.435Z,1.33
2019-02-12T05:40:22.873Z,1.37
2019-02-12T05:42:51.391Z,1.30
2019-02-12T05:45:19.841Z,1.20
2019-02-12T05:47:48.266Z,1.10
2019-02-12T05:50:17.747Z,1.10
2019-02-12T05:52:54.035Z,0.90
2019-02-12T05:55:16.346Z,1.30
2019-02-12T05:57:44.765Z,0.90
2019-02-12T06:00:17.886Z,1.07
2019-02-12T06:02:46.319Z,0.80
2019-02-12T06:05:26.389Z,1.10
2019-02-12T06:07:54.822Z,1.10
2019-02-12T06:10:23.256Z,1.60
2019-02-12T06:12:51.682Z,1.40
2019-02-12T06:15:20.127Z,2.17
2019-02-12T06:17:48.554Z,1.40
2019-02-12T06:20:16.994Z,1.67
2019-02-12T06:22:45.419Z,1.30
2019-02-12T06:25:14.057Z,1.13
2019-02-12T06:27:42.657Z,1.30
2019-02-12T06:30:11.169Z,1.33
2019-02-12T06:32:39.594Z,1.87
2019-02-12T06:35:09.575Z,1.30
2019-02-12T06:37:37.988Z,1.47
2019-02-12T06:40:09.176Z,1.23
2019-02-12T06:42:37.624Z,1.90
2019-02-12T06:45:09.197Z,1.63
2019-02-12T06:47:37.623Z,2.47
2019-02-12T06:50:09.166Z,1.93
2019-02-12T06:52:37.597Z,1.43
2019-02-12T06:55:08.187Z,1.30
2019-02-12T06:57:36.918Z,1.10
2019-02-12T07:00:08.642Z,1.83
2019-02-12T07:03:13.286Z,1.40
2019-02-12T07:05:47.840Z,1.07
2019-02-12T07:08:35.810Z,1.43
2019-02-12T07:11:13.331Z,1.10
2019-02-12T07:17:11.126Z,1.50
2019-02-12T07:19:57.873Z,1.20
2019-02-12T07:22:51.929Z,1.23
2019-02-12T07:25:41.731Z,1.20
2019-02-12T07:31:29.509Z,1.40
2019-02-12T07:34:06.686Z,1.40
2019-02-12T07:36:56.361Z,1.97
2019-02-12T07:39:39.354Z,1.43
2019-02-12T07:42:30.083Z,1.60
2019-02-12T07:45:13.522Z,1.07
2019-02-12T07:48:05.655Z,1.30
2019-02-12T07:50:59.772Z,1.93
2019-02-12T07:53:42.953Z,1.70
2019-02-12T07:56:14.483Z,1.20
2019-02-12T07:58:54.433Z,1.37
2019-02-12T08:01:34.584Z,1.10
2019-02-12T08:04:36.305Z,1.43
2019-02-12T08:07:28.514Z,1.10
2019-02-12T08:10:22.537Z,1.40
2019-02-12T08:13:14.985Z,1.53
2019-02-12T08:16:02.795Z,1.10
2019-02-12T08:18:36.858Z,1.40
2019-02-12T08:21:35.280Z,1.57
2019-02-12T08:24:25.072Z,1.47
2019-02-12T08:27:02.283Z,1.70
2019-02-12T08:29:42.878Z,1.40
2019-02-12T08:32:24.926Z,1.73
2019-02-12T08:34:59.614Z,1.33
2019-02-12T08:37:55.320Z,2.33
2019-02-12T08:40:29.433Z,2.00
2019-02-12T08:43:20.463Z,2.00
2019-02-12T08:45:51.970Z,1.87
2019-02-12T08:48:47.295Z,1.77
2019-02-12T08:51:27.779Z,1.97
2019-02-12T08:57:28.786Z,3.00
2019-02-12T09:00:19.522Z,2.90
2019-02-12T09:03:21.770Z,3.00
2019-02-12T09:05:56.131Z,3.17
2019-02-12T09:08:39.264Z,2.90
2019-02-12T09:11:40.550Z,2.80
2019-02-12T09:14:14.712Z,2.70
2019-02-12T09:17:00.705Z,3.63
2019-02-12T09:19:40.757Z,3.00
2019-02-12T09:22:18.221Z,3.13
2019-02-12T09:24:52.635Z,3.00
2019-02-12T09:27:41.884Z,3.80
2019-02-12T09:30:16.061Z,3.07
2019-02-12T09:32:47.572Z,3.20
2019-02-12T09:38:37.734Z,2.47
2019-02-12T09:41:23.557Z,3.63
2019-02-12T09:44:28.479Z,3.03
2019-02-12T09:47:35.890Z,2.77
2019-02-12T09:50:38.651Z,2.60
2019-02-12T09:56:37.633Z,2.37
2019-02-12T09:59:24.218Z,3.10
2019-02-12T10:02:13.519Z,2.60
2019-02-12T10:05:05.682Z,2.47
2019-02-12T10:07:51.634Z,3.43
2019-02-12T10:10:28.437Z,2.17
2019-02-12T10:13:08.672Z,2.60
2019-02-12T10:15:42.982Z,1.90
2019-02-12T10:18:14.561Z,2.13
2019-02-12T10:20:57.599Z,2.30
2019-02-12T10:23:37.659Z,3.47
2019-02-12T10:26:09.157Z,2.43
2019-02-12T10:28:57.365Z,2.53
2019-02-12T10:31:25.882Z,2.50
2019-02-12T10:33:54.306Z,2.93
2019-02-12T10:36:22.750Z,2.70
2019-02-12T10:38:51.188Z,2.73
2019-02-12T10:41:19.622Z,2.70
2019-02-12T10:43:48.058Z,2.70
2019-02-12T10:46:16.483Z,2.37
2019-02-12T10:48:44.919Z,2.57
2019-02-12T10:51:13.345Z,2.63
2019-02-12T10:53:41.793Z,3.20
2019-02-12T10:56:10.231Z,3.00
2019-02-12T10:58:38.672Z,2.60
2019-02-12T11:01:07.097Z,2.80
2019-02-12T11:03:35.533Z,2.80
2019-02-12T11:06:03.966Z,2.93
2019-02-12T11:08:32.403Z,3.50
2019-02-12T11:11:00.832Z,3.33
2019-02-12T11:13:29.265Z,3.13
2019-02-12T11:15:57.710Z,2.90
2019-02-12T11:18:26.225Z,3.33
2019-02-12T11:20:54.797Z,2.90
2019-02-12T11:23:23.249Z,3.63
2019-02-12T11:25:51.688Z,3.40
2019-02-12T11:28:20.130Z,3.93
2019-02-12T11:30:48.561Z,3.03
2019-02-12T11:33:17.005Z,3.67
2019-02-12T11:35:45.435Z,3.40
2019-02-12T11:38:13.931Z,3.40
2019-02-12T11:40:42.410Z,2.23
2019-02-12T11:43:10.837Z,2.60
2019-02-12T11:45:39.265Z,2.23
2019-02-12T11:48:07.700Z,2.53
2019-02-12T11:50:36.202Z,2.50
2019-02-12T11:53:04.647Z,1.63
2019-02-12T11:55:33.068Z,1.90
2019-02-12T11:58:01.512Z,1.77
2019-02-12T12:00:31.598Z,1.00
2019-02-12T12:03:00.085Z,0.93
2019-02-12T12:05:28.518Z,1.10
2019-02-12T12:08:16.323Z,1.20
2019-02-12T12:10:44.758Z,1.80
2019-02-12T12:13:13.229Z,2.40
2019-02-12T12:15:41.704Z,1.53
2019-02-12T12:18:10.134Z,1.93
2019-02-12T12:20:38.566Z,2.30
2019-02-12T12:23:07.020Z,2.30
2019-02-12T12:25:35.448Z,2.50
2019-02-12T12:28:03.882Z,2.77
2019-02-12T12:30:33.944Z,2.73
2019-02-12T12:33:02.382Z,2.80
2019-02-12T12:35:30.815Z,2.33
2019-02-12T12:37:59.263Z,3.20
2019-02-12T12:40:27.689Z,2.17
2019-02-12T12:42:56.142Z,2.33
2019-02-12T12:45:24.592Z,2.90
2019-02-12T12:47:53.039Z,2.27
2019-02-12T12:50:21.483Z,2.80
2019-02-12T12:52:49.921Z,1.80
2019-02-12T12:55:18.376Z,1.70
2019-02-12T12:57:46.877Z,2.40
2019-02-12T13:00:17.227Z,3.40
2019-02-12T13:02:45.703Z,3.03
2019-02-12T13:05:14.149Z,2.43
2019-02-12T13:07:42.590Z,1.97
2019-02-12T13:10:15.793Z,2.60
2019-02-12T13:12:44.245Z,2.50
2019-02-12T13:15:13.927Z,2.80
2019-02-12T13:17:42.432Z,2.37
2019-02-12T13:20:13.474Z,2.30
2019-02-12T13:22:41.914Z,2.50
2019-02-12T13:25:11.195Z,2.57
2019-02-12T13:27:39.782Z,2.63
2019-02-12T13:30:13.994Z,2.77
2019-02-12T13:32:42.429Z,2.63
2019-02-12T13:35:11.397Z,3.23
2019-02-12T13:37:59.177Z,2.40
2019-02-12T13:40:27.624Z,2.57
2019-02-12T13:42:56.065Z,2.40
2019-02-12T13:45:24.515Z,2.63
2019-02-12T13:47:52.951Z,3.03
2019-02-12T13:50:21.387Z,3.30
2019-02-12T13:52:49.817Z,3.93
2019-02-12T13:55:18.280Z,2.53
2019-02-12T13:57:46.712Z,2.47
2019-02-12T14:00:18.612Z,2.13
2019-02-12T14:02:47.132Z,2.60
2019-02-12T14:05:25.734Z,2.20
2019-02-12T14:07:54.182Z,2.57
2019-02-12T14:10:22.681Z,2.50
2019-02-12T14:12:51.109Z,2.23
2019-02-12T14:15:19.543Z,2.63
2019-02-12T14:17:47.981Z,2.80
2019-02-12T14:20:17.475Z,2.40
2019-02-12T14:22:45.901Z,2.70
2019-02-12T14:25:33.710Z,3.20
2019-02-12T14:28:02.150Z,3.27
2019-02-12T14:30:30.601Z,3.40
2019-02-12T14:32:59.047Z,2.70
2019-02-12T14:35:27.492Z,3.03
2019-02-12T14:37:55.992Z,2.27
2019-02-12T14:40:24.430Z,1.87
2019-02-12T14:42:52.869Z,2.80
2019-02-12T14:45:21.319Z,2.83
2019-02-12T14:47:49.749Z,2.27
2019-02-12T14:50:21.578Z,2.87
2019-02-12T14:52:50.005Z,2.40
2019-02-12T14:55:18.466Z,2.40
2019-02-12T14:57:46.896Z,2.20
2019-02-12T15:00:19.601Z,2.23
2019-02-12T15:02:48.032Z,2.50
2019-02-12T15:05:16.469Z,2.37
2019-02-12T15:07:44.956Z,2.40
2019-02-12T15:10:14.852Z,2.50
2019-02-12T15:12:43.289Z,2.47
2019-02-12T15:15:11.997Z,2.20
2019-02-12T15:17:40.429Z,2.20
2019-02-12T15:20:10.514Z,2.90
2019-02-12T15:22:38.941Z,3.07
2019-02-12T15:25:09.229Z,3.20
2019-02-12T15:27:37.670Z,2.57
2019-02-12T15:30:11.702Z,2.57
2019-02-12T15:32:40.138Z,1.93
2019-02-12T15:35:09.912Z,1.90
2019-02-12T15:37:38.347Z,1.90
2019-02-12T15:40:15.001Z,2.20
2019-02-12T15:42:43.436Z,2.83
2019-02-12T15:45:14.958Z,2.67
2019-02-12T15:47:43.470Z,3.20
2019-02-12T15:50:12.282Z,2.87
2019-02-12T15:53:00.058Z,2.70
2019-02-12T15:55:28.505Z,2.90
2019-02-12T15:57:56.937Z,4.00
2019-02-12T16:00:25.365Z,3.20
2019-02-12T16:02:54.560Z,3.50
2019-02-12T16:05:23.975Z,4.37
2019-02-12T16:07:52.389Z,3.00
2019-02-12T16:10:21.298Z,2.60
2019-02-12T16:12:51.473Z,3.70
2019-02-12T16:15:39.244Z,3.80
2019-02-12T16:18:07.671Z,3.40
2019-02-12T16:20:36.133Z,3.30
2019-02-12T16:23:23.914Z,3.37
2019-02-12T16:25:59.393Z,4.07
2019-02-12T16:28:22.542Z,3.30
2019-02-12T16:30:50.973Z,3.03
2019-02-12T16:33:19.394Z,2.90
2019-02-12T16:35:47.845Z,2.90
2019-02-12T16:38:16.283Z,3.13
2019-02-12T16:41:04.080Z,4.17
2019-02-12T16:43:32.505Z,4.20
2019-02-12T16:46:04.362Z,3.47
2019-02-12T16:48:32.807Z,4.00
2019-02-12T16:51:01.287Z,4.30
2019-02-12T16:53:29.758Z,4.20
2019-02-12T16:55:58.278Z,4.30
2019-02-12T16:58:26.711Z,4.07
2019-02-12T17:00:55.163Z,4.40
2019-02-12T17:03:23.598Z,4.00
2019-02-12T17:05:52.051Z,4.37
2019-02-12T17:08:20.492Z,4.40
2019-02-12T17:10:48.947Z,4.20
2019-02-12T17:13:36.717Z,4.17
2019-02-12T17:16:05.166Z,4.00
2019-02-12T17:18:33.610Z,4.13
2019-02-12T17:21:02.058Z,4.00
2019-02-12T17:23:30.498Z,4.80
2019-02-12T17:25:58.963Z,3.77
2019-02-12T17:28:27.414Z,4.10
2019-02-12T17:31:15.190Z,4.37
2019-02-12T17:33:43.634Z,4.10
2019-02-12T17:36:12.086Z,4.07
2019-02-12T17:38:40.516Z,4.27
2019-02-12T17:41:08.961Z,5.60
2019-02-12T17:43:37.407Z,5.20
2019-02-12T17:46:05.850Z,6.80
2019-02-12T17:48:35.081Z,5.77
2019-02-12T17:51:03.525Z,4.73
2019-02-12T17:53:32.038Z,4.90
2019-02-12T17:56:00.496Z,4.87
2019-02-12T17:58:28.945Z,5.00
2019-02-12T18:00:57.408Z,6.13
2019-02-12T18:03:25.834Z,5.57
2019-02-12T18:05:54.298Z,6.77
2019-02-12T18:08:22.796Z,5.70
2019-02-12T18:10:51.237Z,5.43
2019-02-12T18:13:19.677Z,6.10
2019-02-12T18:15:48.119Z,5.77
2019-02-12T18:18:16.545Z,5.67
2019-02-12T18:20:45.018Z,6.00
2019-02-12T18:23:13.461Z,7.00
2019-02-12T18:25:41.897Z,5.07
2019-02-12T18:28:10.350Z,4.73
2019-02-12T18:30:38.791Z,4.73
2019-02-12T18:33:07.220Z,4.03
2019-02-12T18:35:35.666Z,5.50
2019-02-12T18:38:04.118Z,4.10
2019-02-12T18:40:32.572Z,3.60
2019-02-12T18:43:01.378Z,4.00
2019-02-12T18:45:29.869Z,4.20
2019-02-12T18:47:58.361Z,3.80
2019-02-12T18:50:26.796Z,4.47
2019-02-12T18:52:55.227Z,4.93
2019-02-12T18:55:23.656Z,3.80
2019-02-12T18:57:52.106Z,4.83
2019-02-12T19:00:22.747Z,4.67
2019-02-12T19:02:51.193Z,4.57
2019-02-12T19:05:19.626Z,5.40
2019-02-12T19:07:48.066Z,4.23
2019-02-12T19:10:17.653Z,3.67
2019-02-12T19:12:46.088Z,3.17
2019-02-12T19:15:19.694Z,3.83
2019-02-12T19:17:53.965Z,4.00
2019-02-12T19:20:22.396Z,3.07
2019-02-12T19:22:50.897Z,3.83
2019-02-12T19:25:19.358Z,3.23
2019-02-12T19:27:47.798Z,3.80
2019-02-12T19:30:16.473Z,3.33
2019-02-12T19:32:44.960Z,3.33
2019-02-12T19:35:13.433Z,3.17
2019-02-12T19:37:41.950Z,3.33
2019-02-12T19:40:11.694Z,5.53
2019-02-12T19:42:40.134Z,5.33
2019-02-12T19:45:11.604Z,3.80
2019-02-12T19:47:40.047Z,4.13
2019-02-12T19:50:27.823Z,3.80
2019-02-12T19:52:56.274Z,4.57
2019-02-12T19:55:24.704Z,4.53
2019-02-12T19:57:53.152Z,3.47
2019-02-12T20:00:21.657Z,3.77
2019-02-12T20:02:51.147Z,3.57
2019-02-12T20:05:19.755Z,3.87
2019-02-12T20:07:48.197Z,3.57
2019-02-12T20:10:16.685Z,4.10
2019-02-12T20:12:45.130Z,7.27
2019-02-12T20:15:18.460Z,5.47
2019-02-12T20:17:46.897Z,4.33
2019-02-12T20:20:15.336Z,3.87
2019-02-12T20:22:43.778Z,4.40
2019-02-12T20:25:12.217Z,3.13
2019-02-12T20:27:40.743Z,3.37
2019-02-12T20:30:19.101Z,3.30
2019-02-12T20:32:47.550Z,3.90
2019-02-12T20:35:20.825Z,3.40
2019-02-12T20:37:49.343Z,3.07
2019-02-12T20:40:17.774Z,3.70
2019-02-12T20:42:46.214Z,3.77
2019-02-12T20:45:18.794Z,4.33
2019-02-12T20:47:47.250Z,4.20
2019-02-12T20:50:21.810Z,3.73
2019-02-12T20:52:50.254Z,3.17
2019-02-12T20:55:18.689Z,4.97
2019-02-12T20:57:47.139Z,3.50
2019-02-12T21:00:21.510Z,4.10
2019-02-12T21:02:49.958Z,3.73
2019-02-12T21:05:18.389Z,3.50
2019-02-12T21:07:46.834Z,3.97
2019-02-12T21:10:19.679Z,4.20
2019-02-12T21:12:48.118Z,4.00
2019-02-12T21:15:47.008Z,4.20
2019-02-12T21:18:34.786Z,4.80
2019-02-12T21:21:03.244Z,4.20
2019-02-12T21:23:31.706Z,3.90
2019-02-12T21:26:02.022Z,4.67
2019-02-12T21:28:30.462Z,3.60
2019-02-12T21:30:59.134Z,3.83
2019-02-12T21:33:27.569Z,3.73
2019-02-12T21:35:56.014Z,3.60
2019-02-12T21:38:24.628Z,4.03
2019-02-12T21:40:53.069Z,4.00
2019-02-12T21:43:21.498Z,3.57
2019-02-12T21:45:49.958Z,3.73
2019-02-12T21:48:18.412Z,4.23
2019-02-12T21:50:46.843Z,4.37
2019-02-12T21:53:15.273Z,3.67
2019-02-12T21:55:43.714Z,4.40
2019-02-12T21:58:12.141Z,4.20
2019-02-12T22:00:40.583Z,4.33
2019-02-12T22:03:09.021Z,3.73
2019-02-12T22:05:37.473Z,4.20
2019-02-12T22:08:05.959Z,3.77
2019-02-12T22:10:34.420Z,3.97
2019-02-12T22:13:02.840Z,3.70
2019-02-12T22:15:31.289Z,4.83
2019-02-12T22:17:59.728Z,5.27
2019-02-12T22:20:28.197Z,4.43
2019-02-12T22:22:56.630Z,5.63
2019-02-12T22:25:25.065Z,4.73
2019-02-12T22:27:53.514Z,4.23
2019-02-12T22:30:23.970Z,4.17
2019-02-12T22:32:52.397Z,4.10
2019-02-12T22:35:20.853Z,3.90
2019-02-12T22:37:49.285Z,4.63
2019-02-12T22:40:18.492Z,3.60
2019-02-12T22:42:46.987Z,3.90
2019-02-12T22:45:20.746Z,3.90
2019-02-12T22:47:49.197Z,3.40
2019-02-12T22:50:17.757Z,3.83
2019-02-12T22:52:46.239Z,3.93
2019-02-12T22:55:14.674Z,3.53
2019-02-12T22:57:48.791Z,3.70
2019-02-12T23:00:26.984Z,3.47
2019-02-12T23:02:55.433Z,3.53
2019-02-12T23:05:23.892Z,4.07
2019-02-12T23:07:52.328Z,3.53
2019-02-12T23:10:20.767Z,4.17
2019-02-12T23:12:49.226Z,3.80
2019-02-12T23:15:17.677Z,3.67
2019-02-12T23:17:46.110Z,3.70
2019-02-12T23:20:14.558Z,3.63
2019-02-12T23:22:42.982Z,3.63
2019-02-12T23:25:11.417Z,3.83
2019-02-12T23:27:39.862Z,4.40
2019-02-12T23:30:10.152Z,3.87
2019-02-12T23:32:38.576Z,4.20
2019-02-12T23:35:07.188Z,5.00
2019-02-12T23:37:35.626Z,5.27
2019-02-12T23:40:04.897Z,4.97
2019-02-12T23:42:33.327Z,5.83
2019-02-12T23:45:01.758Z,6.63
2019-02-12T23:47:30.193Z,5.53
2019-02-12T23:49:58.646Z,6.40
2019-02-12T23:52:27.074Z,6.57
2019-02-12T23:54:55.512Z,6.43
2019-02-12T23:57:24.018Z,6.67
2019-02-12T23:59:52.464Z,6.53
